createdAt,value
2023-07-31T00:01:23.474Z,10.37
2023-07-31T00:03:55.474Z,10.47
2023-07-31T00:06:27.166Z,8.20
2023-07-31T00:11:56.067Z,8.97
2023-07-31T00:14:33.990Z,6.40
2023-07-31T00:17:06.052Z,9.90
2023-07-31T00:19:44.975Z,8.93
2023-07-31T00:22:17.656Z,8.50
2023-07-31T00:24:55.250Z,6.97
2023-07-31T00:27:33.258Z,8.43
2023-07-31T00:30:05.007Z,7.20
2023-07-31T00:32:36.529Z,7.30
2023-07-31T00:35:09.045Z,7.30
2023-07-31T00:37:44.291Z,7.53
2023-07-31T00:40:16.046Z,11.33
2023-07-31T00:42:51.280Z,7.53
2023-07-31T00:45:28.335Z,7.53
2023-07-31T00:48:14.967Z,6.87
2023-07-31T00:50:54.199Z,6.80
2023-07-31T00:54:05.805Z,6.70
2023-07-31T00:56:46.680Z,7.60
2023-07-31T00:59:17.189Z,7.10
2023-07-31T01:01:52.850Z,11.60
2023-07-31T01:04:30.659Z,5.77
2023-07-31T01:07:11.223Z,6.57
2023-07-31T01:09:50.180Z,6.00
2023-07-31T01:12:20.373Z,5.53
2023-07-31T01:15:12.430Z,5.40
2023-07-31T01:21:36.947Z,5.20
2023-07-31T01:24:23.912Z,8.90
2023-07-31T01:27:00.418Z,6.50
2023-07-31T01:29:41.078Z,5.47
2023-07-31T01:32:16.207Z,5.40
2023-07-31T01:34:48.280Z,5.60
2023-07-31T01:37:19.021Z,5.40
2023-07-31T01:39:52.738Z,5.50
2023-07-31T01:42:25.397Z,5.93
2023-07-31T01:45:03.402Z,5.40
2023-07-31T01:47:36.320Z,6.10
2023-07-31T01:50:08.559Z,6.97
2023-07-31T01:52:44.419Z,5.83
2023-07-31T01:55:13.513Z,6.47
2023-07-31T01:57:45.979Z,5.20
2023-07-31T02:00:17.942Z,6.13
2023-07-31T02:02:49.117Z,5.67
2023-07-31T02:05:31.093Z,6.13
2023-07-31T02:08:04.714Z,6.07
2023-07-31T02:10:36.757Z,5.83
2023-07-31T02:13:13.935Z,5.93
2023-07-31T02:15:52.160Z,5.23
2023-07-31T02:18:27.142Z,5.50
2023-07-31T02:21:04.070Z,5.70
2023-07-31T02:23:45.016Z,5.40
2023-07-31T02:26:18.343Z,6.10
2023-07-31T02:29:00.100Z,5.40
2023-07-31T02:31:32.484Z,5.20
2023-07-31T02:34:19.210Z,5.90
2023-07-31T02:36:53.263Z,5.90
2023-07-31T02:39:29.123Z,5.30
2023-07-31T02:42:01.793Z,6.40
2023-07-31T02:44:41.884Z,5.50
2023-07-31T02:47:19.145Z,6.57
2023-07-31T02:49:50.747Z,5.37
2023-07-31T02:52:19.357Z,5.73
2023-07-31T02:54:50.404Z,5.40
2023-07-31T02:57:20.742Z,5.40
2023-07-31T02:59:52.968Z,5.60
2023-07-31T03:02:21.693Z,5.10
2023-07-31T03:04:57.841Z,5.40
2023-07-31T03:07:36.994Z,5.20
2023-07-31T03:10:09.983Z,5.10
2023-07-31T03:12:41.866Z,5.67
2023-07-31T03:15:18.315Z,6.43
2023-07-31T03:17:54.225Z,6.00
2023-07-31T03:20:26.953Z,5.50
2023-07-31T03:23:00.603Z,5.90
2023-07-31T03:25:31.392Z,5.70
2023-07-31T03:28:02.677Z,7.50
2023-07-31T03:30:38.132Z,7.50
2023-07-31T03:33:08.191Z,6.40
2023-07-31T03:35:36.632Z,6.23
2023-07-31T03:38:12.996Z,6.70
2023-07-31T03:40:46.142Z,7.67
2023-07-31T03:43:15.118Z,6.07
2023-07-31T03:45:45.262Z,7.13
2023-07-31T03:48:13.827Z,5.60
2023-07-31T03:50:42.263Z,6.40
2023-07-31T03:53:19.956Z,6.50
2023-07-31T03:55:50.601Z,8.20
2023-07-31T03:58:23.881Z,7.23
2023-07-31T04:01:04.870Z,5.73
2023-07-31T04:03:39.182Z,6.90
2023-07-31T04:06:08.420Z,6.07
2023-07-31T04:08:37.008Z,5.60
2023-07-31T04:11:05.697Z,6.33
2023-07-31T04:13:46.684Z,13.83
2023-07-31T04:16:25.539Z,6.83
2023-07-31T04:18:57.041Z,6.00
2023-07-31T04:21:30.227Z,6.90
2023-07-31T04:24:04.385Z,5.10
2023-07-31T04:26:50.351Z,7.43
2023-07-31T04:29:30.290Z,5.70
2023-07-31T04:32:05.291Z,5.50
2023-07-31T04:34:37.050Z,5.63
2023-07-31T04:37:11.495Z,7.37
2023-07-31T04:39:41.183Z,5.30
2023-07-31T04:42:11.670Z,5.20
2023-07-31T04:44:48.064Z,7.90
2023-07-31T04:47:29.472Z,6.57
2023-07-31T04:50:02.483Z,6.40
2023-07-31T04:52:33.933Z,5.40
2023-07-31T04:55:16.452Z,5.30
2023-07-31T04:57:45.298Z,7.63
2023-07-31T05:00:27.326Z,6.00
2023-07-31T05:03:07.309Z,6.07
2023-07-31T05:05:35.918Z,5.77
2023-07-31T05:08:15.468Z,5.20
2023-07-31T05:10:46.344Z,6.70
2023-07-31T05:13:19.489Z,6.67
2023-07-31T05:16:00.844Z,7.40
2023-07-31T05:18:36.135Z,8.17
2023-07-31T05:21:08.586Z,9.80
2023-07-31T05:23:56.219Z,10.53
2023-07-31T05:26:31.610Z,8.70
2023-07-31T05:29:00.257Z,8.87
2023-07-31T05:31:38.241Z,10.13
2023-07-31T05:34:12.959Z,7.67
2023-07-31T05:36:50.090Z,8.43
2023-07-31T05:39:21.416Z,9.57
2023-07-31T05:41:56.260Z,17.77
2023-07-31T05:44:32.586Z,11.70
2023-07-31T05:47:05.940Z,10.40
2023-07-31T05:49:39.525Z,9.20
2023-07-31T05:52:14.274Z,9.17
2023-07-31T05:54:47.216Z,11.30
2023-07-31T05:57:15.927Z,8.50
2023-07-31T06:00:00.488Z,8.07
2023-07-31T06:02:35.565Z,10.30
2023-07-31T06:05:11.814Z,10.07
2023-07-31T06:08:18.478Z,10.00
2023-07-31T06:10:52.542Z,9.60
2023-07-31T06:13:26.147Z,11.70
2023-07-31T06:16:07.773Z,10.60
2023-07-31T06:18:56.305Z,10.52
2023-07-31T06:24:43.050Z,10.23
2023-07-31T06:27:19.251Z,8.53
2023-07-31T06:30:13.091Z,11.30
2023-07-31T06:33:18.756Z,7.50
2023-07-31T06:35:57.741Z,7.80
2023-07-31T06:38:36.772Z,10.87
2023-07-31T06:41:16.239Z,8.80
2023-07-31T06:43:47.658Z,15.40
2023-07-31T06:46:19.553Z,15.33
2023-07-31T06:48:56.542Z,12.57
2023-07-31T06:51:36.671Z,14.40
2023-07-31T06:54:29.565Z,11.50
2023-07-31T06:57:00.858Z,10.90
2023-07-31T06:59:32.723Z,13.73
2023-07-31T07:02:08.778Z,15.07
2023-07-31T07:04:39.726Z,15.13
2023-07-31T07:07:11.072Z,9.57
2023-07-31T07:09:41.405Z,14.07
2023-07-31T07:12:39.262Z,12.50
2023-07-31T07:21:58.072Z,10.50
2023-07-31T07:24:31.566Z,13.50
2023-07-31T07:27:04.771Z,11.77
2023-07-31T07:29:37.831Z,11.87
2023-07-31T07:32:16.670Z,11.87
2023-07-31T07:34:45.466Z,11.90
2023-07-31T07:37:17.062Z,13.43
2023-07-31T07:39:58.803Z,9.97
2023-07-31T07:42:56.276Z,11.23
2023-07-31T07:45:39.912Z,12.07
2023-07-31T07:48:13.343Z,10.43
2023-07-31T07:50:46.596Z,10.63
2023-07-31T07:53:24.197Z,13.97
2023-07-31T07:56:01.902Z,10.07
2023-07-31T07:58:33.354Z,12.47
2023-07-31T08:01:05.061Z,13.20
2023-07-31T08:03:39.365Z,10.50
2023-07-31T08:06:10.452Z,11.03
2023-07-31T08:08:46.211Z,11.60
2023-07-31T08:11:14.991Z,9.63
2023-07-31T08:13:46.965Z,9.53
2023-07-31T08:16:29.744Z,10.77
2023-07-31T08:19:01.456Z,11.93
2023-07-31T08:21:42.910Z,8.67
2023-07-31T08:24:22.160Z,10.00
2023-07-31T08:26:53.717Z,10.20
2023-07-31T08:29:28.985Z,9.10
2023-07-31T08:32:01.737Z,10.80
2023-07-31T08:34:46.487Z,9.60
2023-07-31T08:37:22.646Z,11.53
2023-07-31T08:40:07.208Z,9.83
2023-07-31T08:42:45.262Z,10.30
2023-07-31T08:45:20.462Z,13.60
2023-07-31T08:47:56.142Z,10.83
2023-07-31T08:50:36.462Z,11.57
2023-07-31T08:53:10.382Z,9.27
2023-07-31T08:55:47.742Z,12.10
2023-07-31T08:58:24.118Z,7.80
2023-07-31T09:00:58.457Z,8.30
2023-07-31T09:03:36.258Z,10.40
2023-07-31T09:06:13.010Z,9.47
2023-07-31T09:08:53.221Z,7.80
2023-07-31T09:11:26.537Z,10.50
2023-07-31T09:13:59.856Z,8.50
2023-07-31T09:16:35.860Z,10.13
2023-07-31T09:19:19.039Z,7.17
2023-07-31T09:21:54.862Z,10.37
2023-07-31T09:24:39.223Z,8.33
2023-07-31T09:27:17.563Z,8.10
2023-07-31T09:30:00.833Z,7.00
2023-07-31T09:32:39.436Z,7.00
2023-07-31T09:35:20.633Z,6.43
2023-07-31T09:38:00.252Z,6.37
2023-07-31T09:40:30.886Z,7.67
2023-07-31T09:43:02.287Z,7.80
2023-07-31T09:45:41.228Z,8.67
2023-07-31T09:48:23.383Z,7.77
2023-07-31T09:50:57.791Z,7.57
2023-07-31T09:53:34.617Z,9.50
2023-07-31T09:56:11.686Z,6.33
2023-07-31T09:58:59.353Z,8.37
2023-07-31T10:01:31.053Z,7.73
2023-07-31T10:04:06.335Z,7.87
2023-07-31T10:06:42.006Z,7.67
2023-07-31T10:09:16.399Z,7.47
2023-07-31T10:11:52.372Z,7.73
2023-07-31T10:14:37.228Z,9.03
2023-07-31T10:17:10.625Z,8.33
2023-07-31T10:19:43.551Z,10.23
2023-07-31T10:22:13.663Z,10.70
2023-07-31T10:24:48.068Z,8.27
2023-07-31T10:27:19.259Z,8.60
2023-07-31T10:30:11.129Z,8.90
2023-07-31T10:32:53.631Z,8.57
2023-07-31T10:35:25.297Z,7.80
2023-07-31T10:37:58.466Z,8.90
2023-07-31T10:40:33.751Z,9.00
2023-07-31T10:43:03.925Z,7.50
2023-07-31T10:45:38.390Z,10.97
2023-07-31T10:48:16.078Z,9.60
2023-07-31T10:50:52.986Z,12.93
2023-07-31T10:53:37.903Z,8.93
2023-07-31T10:56:09.667Z,11.80
2023-07-31T10:58:40.090Z,7.27
2023-07-31T11:01:09.269Z,8.30
2023-07-31T11:03:49.766Z,9.20
2023-07-31T11:06:20.381Z,7.20
2023-07-31T11:08:52.684Z,12.23
2023-07-31T11:11:26.891Z,7.17
2023-07-31T11:13:57.521Z,7.70
2023-07-31T11:16:30.427Z,7.50
2023-07-31T11:19:01.960Z,13.83
2023-07-31T11:21:36.887Z,6.93
2023-07-31T11:24:08.541Z,6.80
2023-07-31T11:26:44.517Z,7.20
2023-07-31T11:29:17.191Z,8.87
2023-07-31T11:31:47.831Z,8.83
2023-07-31T11:34:22.534Z,8.40
2023-07-31T11:37:24.611Z,6.90
2023-07-31T11:40:16.242Z,7.50
2023-07-31T11:42:52.703Z,7.23
2023-07-31T11:45:27.549Z,7.33
2023-07-31T11:48:03.744Z,7.50
2023-07-31T11:50:38.740Z,9.00
2023-07-31T11:53:14.389Z,7.83
2023-07-31T11:55:43.483Z,9.03
2023-07-31T11:58:13.414Z,9.03
2023-07-31T12:00:45.455Z,7.70
2023-07-31T12:03:16.344Z,9.00
2023-07-31T12:05:50.711Z,8.57
2023-07-31T12:08:26.983Z,9.10
2023-07-31T12:11:00.790Z,7.40
2023-07-31T12:13:34.083Z,7.37
2023-07-31T12:16:09.007Z,7.90
2023-07-31T12:18:39.458Z,8.70
2023-07-31T12:21:14.404Z,8.23
2023-07-31T12:23:49.211Z,9.17
2023-07-31T12:26:21.584Z,9.03
2023-07-31T12:28:56.414Z,9.37
2023-07-31T12:31:34.681Z,8.80
2023-07-31T12:34:07.081Z,8.60
2023-07-31T12:36:38.107Z,16.93
2023-07-31T12:39:08.982Z,12.13
2023-07-31T12:41:40.471Z,9.93
2023-07-31T12:44:09.537Z,8.33
2023-07-31T12:46:39.101Z,8.40
2023-07-31T12:49:14.260Z,7.07
2023-07-31T12:51:49.504Z,7.43
2023-07-31T12:54:25.987Z,9.10
2023-07-31T12:56:59.320Z,7.40
2023-07-31T12:59:37.081Z,10.10
2023-07-31T13:02:09.541Z,6.93
2023-07-31T13:04:38.832Z,7.60
2023-07-31T13:07:12.061Z,9.80
2023-07-31T13:09:42.585Z,7.10
2023-07-31T13:12:12.066Z,7.00
2023-07-31T13:14:42.003Z,5.73
2023-07-31T13:17:15.297Z,7.00
2023-07-31T13:19:46.184Z,7.77
2023-07-31T13:22:19.326Z,7.10
2023-07-31T13:24:50.165Z,7.03
2023-07-31T13:27:23.129Z,8.00
2023-07-31T13:29:59.214Z,6.53
2023-07-31T13:32:31.152Z,6.30
2023-07-31T13:35:10.894Z,5.90
2023-07-31T13:37:45.862Z,5.83
2023-07-31T13:40:18.863Z,6.57
2023-07-31T13:42:51.556Z,5.97
2023-07-31T13:45:24.472Z,7.23
2023-07-31T13:47:57.780Z,7.10
2023-07-31T13:50:27.372Z,6.23
2023-07-31T13:53:05.598Z,5.97
2023-07-31T13:58:50.795Z,5.60
2023-07-31T14:01:29.098Z,5.70
2023-07-31T14:04:02.343Z,6.03
2023-07-31T14:06:31.713Z,5.43
2023-07-31T14:09:02.723Z,8.43
2023-07-31T14:11:43.108Z,5.60
2023-07-31T14:14:19.691Z,5.40
2023-07-31T14:16:55.900Z,8.33
2023-07-31T14:19:31.231Z,6.30
2023-07-31T14:22:11.364Z,5.40
2023-07-31T14:24:40.731Z,5.27
2023-07-31T14:27:15.716Z,6.53
2023-07-31T14:29:47.672Z,5.23
2023-07-31T14:32:16.906Z,8.43
2023-07-31T14:34:52.362Z,6.83
2023-07-31T14:37:24.432Z,6.40
2023-07-31T14:39:55.197Z,16.70
2023-07-31T14:42:28.718Z,7.73
2023-07-31T14:45:11.548Z,10.53
2023-07-31T14:47:42.808Z,6.70
2023-07-31T14:50:20.947Z,8.17
2023-07-31T14:52:55.153Z,11.00
2023-07-31T14:55:33.447Z,8.70
2023-07-31T14:58:06.458Z,7.60
2023-07-31T15:00:37.488Z,6.30
2023-07-31T15:03:11.463Z,7.30
2023-07-31T15:05:46.733Z,7.03
2023-07-31T15:08:20.821Z,6.90
2023-07-31T15:10:59.674Z,6.73
2023-07-31T15:13:35.617Z,7.43
2023-07-31T15:16:07.014Z,7.33
2023-07-31T15:18:39.260Z,8.40
2023-07-31T15:21:15.808Z,9.13
2023-07-31T15:23:47.475Z,7.43
2023-07-31T15:26:23.022Z,7.40
2023-07-31T15:29:05.133Z,11.40
2023-07-31T15:31:41.025Z,8.17
2023-07-31T15:34:22.155Z,11.33
2023-07-31T15:36:59.124Z,8.43
2023-07-31T15:39:34.661Z,7.13
2023-07-31T15:42:07.773Z,8.30
2023-07-31T15:44:41.566Z,8.50
2023-07-31T15:47:15.180Z,6.90
2023-07-31T15:49:48.801Z,10.60
2023-07-31T15:52:20.934Z,8.83
2023-07-31T15:54:58.342Z,8.97
2023-07-31T15:57:37.780Z,7.97
2023-07-31T16:00:18.144Z,8.57
2023-07-31T16:02:47.182Z,9.57
2023-07-31T16:05:22.795Z,7.03
2023-07-31T16:07:55.452Z,8.50
2023-07-31T16:10:24.736Z,9.40
2023-07-31T16:12:59.076Z,7.90
2023-07-31T16:15:34.829Z,9.03
2023-07-31T16:18:06.304Z,7.17
2023-07-31T16:20:46.760Z,7.73
2023-07-31T16:23:18.190Z,7.53
2023-07-31T16:25:51.592Z,8.07
2023-07-31T16:28:28.919Z,7.80
2023-07-31T16:31:18.047Z,6.63
2023-07-31T16:33:49.519Z,12.03
2023-07-31T16:36:30.779Z,8.30
2023-07-31T16:39:02.331Z,6.80
2023-07-31T16:41:33.958Z,6.70
2023-07-31T16:44:09.624Z,6.50
2023-07-31T16:46:45.068Z,7.10
2023-07-31T16:49:22.360Z,8.67
2023-07-31T16:51:58.289Z,6.07
2023-07-31T16:54:28.751Z,6.40
2023-07-31T16:57:00.905Z,8.50
2023-07-31T16:59:35.836Z,7.33
2023-07-31T17:02:08.319Z,7.20
2023-07-31T17:04:43.806Z,6.50
2023-07-31T17:07:27.820Z,7.00
2023-07-31T17:10:01.325Z,6.80
2023-07-31T17:12:48.037Z,6.40
2023-07-31T17:15:23.467Z,5.90
2023-07-31T17:18:05.766Z,7.20
2023-07-31T17:21:10.283Z,5.70
2023-07-31T17:23:42.462Z,8.10
2023-07-31T17:26:18.304Z,8.33
2023-07-31T17:28:46.209Z,8.13
2023-07-31T17:31:14.660Z,6.47
2023-07-31T17:33:44.096Z,5.93
2023-07-31T17:36:11.993Z,6.30
2023-07-31T17:38:40.801Z,6.27
2023-07-31T17:41:09.525Z,7.70
2023-07-31T17:43:37.559Z,6.10
2023-07-31T17:46:05.890Z,7.10
2023-07-31T17:48:33.785Z,6.93
2023-07-31T17:51:03.288Z,6.37
2023-07-31T17:53:31.308Z,9.43
2023-07-31T17:55:59.193Z,6.90
2023-07-31T17:58:27.060Z,7.67
2023-07-31T18:00:55.935Z,5.97
2023-07-31T18:03:24.056Z,6.40
2023-07-31T18:05:52.021Z,6.87
2023-07-31T18:08:21.325Z,7.20
2023-07-31T18:10:49.294Z,6.93
2023-07-31T18:13:17.794Z,9.80
2023-07-31T18:15:46.274Z,7.33
2023-07-31T18:18:14.636Z,7.47
2023-07-31T18:20:42.590Z,8.27
2023-07-31T18:23:10.835Z,7.20
2023-07-31T18:25:42.260Z,9.70
2023-07-31T18:28:10.169Z,8.73
2023-07-31T18:30:38.123Z,9.33
2023-07-31T18:33:06.098Z,10.13
2023-07-31T18:35:34.012Z,7.17
2023-07-31T18:38:01.871Z,8.80
2023-07-31T18:40:29.721Z,8.23
2023-07-31T18:42:58.900Z,8.57
2023-07-31T18:45:26.721Z,8.23
2023-07-31T18:47:54.627Z,8.60
2023-07-31T18:50:22.502Z,12.30
2023-07-31T18:52:50.414Z,9.83
2023-07-31T18:55:18.447Z,9.10
2023-07-31T18:57:47.259Z,7.63
2023-07-31T19:00:16.862Z,7.67
2023-07-31T19:02:44.785Z,8.43
2023-07-31T19:05:12.651Z,7.40
2023-07-31T19:07:40.499Z,7.77
2023-07-31T19:10:16.547Z,8.30
2023-07-31T19:12:45.525Z,9.27
2023-07-31T19:15:13.382Z,7.70
2023-07-31T19:17:47.281Z,10.20
2023-07-31T19:20:15.866Z,9.80
2023-07-31T19:22:43.725Z,8.10
2023-07-31T19:25:11.647Z,11.10
2023-07-31T19:27:40.020Z,7.87
2023-07-31T19:30:09.841Z,8.97
2023-07-31T19:32:37.747Z,11.70
2023-07-31T19:35:07.837Z,10.33
2023-07-31T19:37:35.730Z,8.60
2023-07-31T19:40:04.233Z,8.93
2023-07-31T19:42:33.362Z,8.00
2023-07-31T19:45:01.199Z,8.50
2023-07-31T19:47:29.053Z,9.93
2023-07-31T19:49:57.640Z,8.07
2023-07-31T19:52:26.997Z,7.47
2023-07-31T19:54:55.009Z,8.57
2023-07-31T19:57:23.156Z,9.17
2023-07-31T19:59:50.978Z,10.63
2023-07-31T20:02:18.805Z,10.37
2023-07-31T20:04:46.664Z,8.33
2023-07-31T20:07:14.564Z,10.07
2023-07-31T20:09:43.726Z,7.20
2023-07-31T20:12:11.599Z,9.43
2023-07-31T20:14:39.432Z,11.30
2023-07-31T20:17:07.773Z,8.00
2023-07-31T20:19:35.603Z,8.33
2023-07-31T20:22:03.547Z,9.80
2023-07-31T20:24:31.366Z,12.10
2023-07-31T20:27:00.552Z,8.27
2023-07-31T20:29:28.424Z,7.07
2023-07-31T20:31:56.287Z,7.03
2023-07-31T20:34:24.210Z,8.07
2023-07-31T20:36:52.077Z,11.03
2023-07-31T20:39:19.911Z,7.77
2023-07-31T20:41:48.401Z,9.27
2023-07-31T20:44:17.642Z,8.80
2023-07-31T20:46:45.603Z,7.77
2023-07-31T20:49:13.444Z,8.10
2023-07-31T20:51:44.632Z,7.10
2023-07-31T20:54:13.096Z,9.73
2023-07-31T20:56:41.241Z,7.50
2023-07-31T20:59:09.755Z,10.73
2023-07-31T21:01:38.961Z,9.57
2023-07-31T21:04:07.128Z,8.53
2023-07-31T21:06:34.971Z,7.97
2023-07-31T21:09:02.824Z,10.63
2023-07-31T21:11:30.809Z,7.90
2023-07-31T21:13:59.576Z,7.60
2023-07-31T21:16:28.020Z,8.53
2023-07-31T21:18:59.042Z,10.83
2023-07-31T21:21:27.031Z,10.40
2023-07-31T21:23:54.964Z,8.63
2023-07-31T21:26:22.873Z,8.60
2023-07-31T21:28:50.820Z,7.10
2023-07-31T21:31:19.011Z,8.43
2023-07-31T21:33:46.985Z,7.73
2023-07-31T21:36:16.384Z,8.23
2023-07-31T21:38:44.312Z,10.23
2023-07-31T21:41:12.177Z,8.83
2023-07-31T21:43:39.988Z,7.83
2023-07-31T21:46:07.993Z,8.80
2023-07-31T21:48:35.922Z,7.10
2023-07-31T21:51:04.117Z,6.50
2023-07-31T21:53:33.484Z,6.70
2023-07-31T21:56:01.452Z,6.17
2023-07-31T21:58:29.396Z,5.70
2023-07-31T22:00:57.297Z,5.60
2023-07-31T22:03:25.309Z,5.60
2023-07-31T22:05:53.185Z,6.33
2023-07-31T22:08:21.090Z,5.27
2023-07-31T22:10:50.346Z,6.60
2023-07-31T22:13:18.412Z,6.00
2023-07-31T22:15:46.295Z,5.80
2023-07-31T22:18:14.197Z,5.57
2023-07-31T22:20:42.073Z,6.80
2023-07-31T22:23:09.938Z,5.67
2023-07-31T22:25:37.758Z,7.30
2023-07-31T22:28:20.034Z,5.97
2023-07-31T22:30:49.259Z,5.23
2023-07-31T22:33:17.211Z,6.20
2023-07-31T22:35:45.141Z,5.63
2023-07-31T22:38:12.986Z,5.50
2023-07-31T22:40:40.993Z,5.43
2023-07-31T22:43:10.274Z,6.20
2023-07-31T22:45:38.125Z,6.10
2023-07-31T22:48:06.276Z,5.90
2023-07-31T22:50:34.304Z,6.43
2023-07-31T22:53:02.274Z,5.40
2023-07-31T22:55:31.801Z,5.77
2023-07-31T22:57:59.680Z,5.97
2023-07-31T23:00:29.089Z,5.70
2023-07-31T23:02:57.074Z,5.73
2023-07-31T23:05:25.803Z,5.50
2023-07-31T23:07:53.738Z,6.37
2023-07-31T23:10:21.609Z,5.63
2023-07-31T23:12:49.475Z,6.67
2023-07-31T23:15:17.567Z,5.30
2023-07-31T23:17:46.771Z,4.90
2023-07-31T23:20:14.672Z,5.20
2023-07-31T23:22:42.545Z,7.27
2023-07-31T23:25:10.781Z,5.83
2023-07-31T23:27:38.633Z,6.27
2023-07-31T23:30:08.086Z,5.67
2023-07-31T23:32:36.049Z,6.30
2023-07-31T23:35:05.922Z,6.43
2023-07-31T23:37:33.773Z,5.60
2023-07-31T23:40:01.608Z,5.60
2023-07-31T23:42:31.585Z,5.80
2023-07-31T23:45:10.191Z,6.20
2023-07-31T23:47:39.055Z,6.23
2023-07-31T23:50:13.820Z,5.30
2023-07-31T23:52:42.193Z,5.70
2023-07-31T23:55:11.230Z,5.50
2023-07-31T23:57:40.927Z,5.60
